sensor_id;sensor_type;location;lat;lon;timestamp;P1;durP1;ratioP1;P2;durP2;ratioP2
2710;SDS011;20721;47.402;8.550;2023-04-05T00:00:27;9.89;;;9.89;;
2710;SDS011;20721;47.402;8.550;2023-04-05T00:02:28;11.14;;;11.14;;
2710;SDS011;20721;47.402;8.550;2023-04-05T00:03:27;8.93;;;8.93;;
2710;SDS011;20721;47.402;8.550;2023-04-05T00:04:30;8.58;;;8.58;;
2710;SDS011;20721;47.402;8.550;2023-04-05T00:05:30;9.22;;;9.22;;
2710;SDS011;20721;47.402;8.550;2023-04-05T00:06:28;9.17;;;9.17;;
2710;SDS011;20721;47.402;8.550;2023-04-05T00:07:28;9.91;;;9.91;;
2710;SDS011;20721;47.402;8.550;2023-04-05T00:08:32;9.34;;;9.34;;
2710;SDS011;20721;47.402;8.550;2023-04-05T00:09:28;9.96;;;9.96;;
2710;SDS011;20721;47.402;8.550;2023-04-05T00:12:27;9.83;;;9.83;;
2710;SDS011;20721;47.402;8.550;2023-04-05T00:13:27;9.14;;;9.14;;
2710;SDS011;20721;47.402;8.550;2023-04-05T00:14:27;9.34;;;9.34;;
2710;SDS011;20721;47.402;8.550;2023-04-05T00:15:27;9.40;;;9.40;;
2710;SDS011;20721;47.402;8.550;2023-04-05T00:16:28;9.70;;;9.70;;
2710;SDS011;20721;47.402;8.550;2023-04-05T00:17:27;9.08;;;9.08;;
2710;SDS011;20721;47.402;8.550;2023-04-05T00:18:34;10.04;;;10.04;;
2710;SDS011;20721;47.402;8.550;2023-04-05T00:19:27;9.89;;;9.89;;
2710;SDS011;20721;47.402;8.550;2023-04-05T00:20:27;9.25;;;9.25;;
2710;SDS011;20721;47.402;8.550;2023-04-05T00:21:28;9.72;;;9.72;;
2710;SDS011;20721;47.402;8.550;2023-04-05T00:22:29;10.22;;;10.22;;
2710;SDS011;20721;47.402;8.550;2023-04-05T00:23:27;10.56;;;10.56;;
2710;SDS011;20721;47.402;8.550;2023-04-05T00:24:27;9.80;;;9.80;;
2710;SDS011;20721;47.402;8.550;2023-04-05T00:25:27;10.10;;;10.10;;
2710;SDS011;20721;47.402;8.550;2023-04-05T00:26:27;11.31;;;11.31;;
2710;SDS011;20721;47.402;8.550;2023-04-05T00:27:27;11.16;;;11.16;;
2710;SDS011;20721;47.402;8.550;2023-04-05T00:28:27;11.48;;;11.48;;
2710;SDS011;20721;47.402;8.550;2023-04-05T00:29:27;9.93;;;9.93;;
2710;SDS011;20721;47.402;8.550;2023-04-05T00:30:30;9.92;;;9.92;;
2710;SDS011;20721;47.402;8.550;2023-04-05T00:31:27;9.66;;;9.66;;
2710;SDS011;20721;47.402;8.550;2023-04-05T00:32:27;8.97;;;8.97;;
2710;SDS011;20721;47.402;8.550;2023-04-05T00:35:27;9.52;;;9.52;;
2710;SDS011;20721;47.402;8.550;2023-04-05T00:36:28;9.62;;;9.62;;
2710;SDS011;20721;47.402;8.550;2023-04-05T00:38:27;8.92;;;8.92;;
2710;SDS011;20721;47.402;8.550;2023-04-05T00:39:27;10.28;;;10.28;;
2710;SDS011;20721;47.402;8.550;2023-04-05T00:40:27;9.73;;;9.73;;
2710;SDS011;20721;47.402;8.550;2023-04-05T00:41:27;9.65;;;9.65;;
2710;SDS011;20721;47.402;8.550;2023-04-05T00:42:27;9.58;;;9.58;;
2710;SDS011;20721;47.402;8.550;2023-04-05T00:44:28;9.26;;;9.26;;
2710;SDS011;20721;47.402;8.550;2023-04-05T00:45:27;9.68;;;9.68;;
2710;SDS011;20721;47.402;8.550;2023-04-05T00:46:27;8.82;;;8.82;;
2710;SDS011;20721;47.402;8.550;2023-04-05T00:47:27;9.89;;;9.89;;
2710;SDS011;20721;47.402;8.550;2023-04-05T00:48:27;10.30;;;10.30;;
2710;SDS011;20721;47.402;8.550;2023-04-05T00:49:28;9.21;;;9.21;;
2710;SDS011;20721;47.402;8.550;2023-04-05T00:53:28;10.18;;;10.18;;
2710;SDS011;20721;47.402;8.550;2023-04-05T00:54:27;10.17;;;10.17;;
2710;SDS011;20721;47.402;8.550;2023-04-05T00:56:28;10.08;;;10.08;;
2710;SDS011;20721;47.402;8.550;2023-04-05T00:57:27;9.43;;;9.43;;
2710;SDS011;20721;47.402;8.550;2023-04-05T00:58:29;10.91;;;10.91;;
2710;SDS011;20721;47.402;8.550;2023-04-05T00:59:27;9.77;;;9.77;;
2710;SDS011;20721;47.402;8.550;2023-04-05T01:01:28;9.84;;;9.84;;
2710;SDS011;20721;47.402;8.550;2023-04-05T01:02:32;9.70;;;9.70;;
2710;SDS011;20721;47.402;8.550;2023-04-05T01:03:30;10.41;;;10.41;;
2710;SDS011;20721;47.402;8.550;2023-04-05T01:04:34;10.55;;;10.55;;
2710;SDS011;20721;47.402;8.550;2023-04-05T01:05:34;10.26;;;10.26;;
2710;SDS011;20721;47.402;8.550;2023-04-05T01:09:36;10.38;;;10.38;;
2710;SDS011;20721;47.402;8.550;2023-04-05T01:10:32;10.90;;;10.90;;
2710;SDS011;20721;47.402;8.550;2023-04-05T01:11:27;10.56;;;10.56;;
2710;SDS011;20721;47.402;8.550;2023-04-05T01:12:29;10.41;;;10.41;;
2710;SDS011;20721;47.402;8.550;2023-04-05T01:13:28;10.28;;;10.28;;
2710;SDS011;20721;47.402;8.550;2023-04-05T01:14:27;10.98;;;10.98;;
2710;SDS011;20721;47.402;8.550;2023-04-05T01:15:27;9.53;;;9.53;;
2710;SDS011;20721;47.402;8.550;2023-04-05T01:16:27;9.48;;;9.48;;
2710;SDS011;20721;47.402;8.550;2023-04-05T01:17:33;9.68;;;9.68;;
2710;SDS011;20721;47.402;8.550;2023-04-05T01:18:27;10.32;;;10.32;;
2710;SDS011;20721;47.402;8.550;2023-04-05T01:19:27;10.59;;;10.59;;
2710;SDS011;20721;47.402;8.550;2023-04-05T01:20:28;9.78;;;9.78;;
2710;SDS011;20721;47.402;8.550;2023-04-05T01:21:43;10.66;;;10.66;;
2710;SDS011;20721;47.402;8.550;2023-04-05T01:22:42;9.82;;;9.82;;
2710;SDS011;20721;47.402;8.550;2023-04-05T01:23:41;10.34;;;10.34;;
2710;SDS011;20721;47.402;8.550;2023-04-05T01:26:42;9.99;;;9.99;;
2710;SDS011;20721;47.402;8.550;2023-04-05T01:28:34;10.36;;;10.36;;
2710;SDS011;20721;47.402;8.550;2023-04-05T01:29:43;10.84;;;10.84;;
2710;SDS011;20721;47.402;8.550;2023-04-05T01:31:43;10.62;;;10.62;;
2710;SDS011;20721;47.402;8.550;2023-04-05T01:34:45;10.85;;;10.85;;
2710;SDS011;20721;47.402;8.550;2023-04-05T01:35:40;10.37;;;10.37;;
2710;SDS011;20721;47.402;8.550;2023-04-05T01:37:29;10.81;;;10.81;;
2710;SDS011;20721;47.402;8.550;2023-04-05T01:38:29;10.40;;;10.40;;
2710;SDS011;20721;47.402;8.550;2023-04-05T01:39:29;10.89;;;10.89;;
2710;SDS011;20721;47.402;8.550;2023-04-05T01:40:28;11.86;;;11.86;;
2710;SDS011;20721;47.402;8.550;2023-04-05T01:42:32;10.39;;;10.39;;
2710;SDS011;20721;47.402;8.550;2023-04-05T01:43:27;9.92;;;9.92;;
2710;SDS011;20721;47.402;8.550;2023-04-05T01:44:27;11.04;;;11.04;;
2710;SDS011;20721;47.402;8.550;2023-04-05T01:45:27;10.35;;;10.35;;
2710;SDS011;20721;47.402;8.550;2023-04-05T01:46:27;10.56;;;10.56;;
2710;SDS011;20721;47.402;8.550;2023-04-05T01:47:27;10.35;;;10.35;;
2710;SDS011;20721;47.402;8.550;2023-04-05T01:48:27;10.51;;;10.51;;
2710;SDS011;20721;47.402;8.550;2023-04-05T01:50:27;10.33;;;10.33;;
2710;SDS011;20721;47.402;8.550;2023-04-05T01:52:27;10.41;;;10.41;;
2710;SDS011;20721;47.402;8.550;2023-04-05T01:54:27;10.66;;;10.66;;
2710;SDS011;20721;47.402;8.550;2023-04-05T01:56:27;10.42;;;10.42;;
2710;SDS011;20721;47.402;8.550;2023-04-05T01:57:27;10.26;;;10.26;;
2710;SDS011;20721;47.402;8.550;2023-04-05T01:58:27;10.50;;;10.50;;
2710;SDS011;20721;47.402;8.550;2023-04-05T02:01:27;11.32;;;11.32;;
2710;SDS011;20721;47.402;8.550;2023-04-05T02:02:27;10.12;;;10.12;;
2710;SDS011;20721;47.402;8.550;2023-04-05T02:03:27;11.47;;;11.47;;
2710;SDS011;20721;47.402;8.550;2023-04-05T02:04:27;11.25;;;11.25;;
2710;SDS011;20721;47.402;8.550;2023-04-05T02:05:27;11.10;;;11.10;;
2710;SDS011;20721;47.402;8.550;2023-04-05T02:06:27;10.49;;;10.49;;
2710;SDS011;20721;47.402;8.550;2023-04-05T02:07:27;11.34;;;11.34;;
2710;SDS011;20721;47.402;8.550;2023-04-05T02:09:27;11.02;;;11.02;;
2710;SDS011;20721;47.402;8.550;2023-04-05T02:11:27;11.18;;;11.18;;
2710;SDS011;20721;47.402;8.550;2023-04-05T02:12:27;11.46;;;11.46;;
2710;SDS011;20721;47.402;8.550;2023-04-05T02:13:27;10.68;;;10.68;;
2710;SDS011;20721;47.402;8.550;2023-04-05T02:14:27;10.87;;;10.87;;
2710;SDS011;20721;47.402;8.550;2023-04-05T02:15:27;11.72;;;11.72;;
2710;SDS011;20721;47.402;8.550;2023-04-05T02:16:27;11.39;;;11.39;;
2710;SDS011;20721;47.402;8.550;2023-04-05T02:17:27;10.13;;;10.13;;
2710;SDS011;20721;47.402;8.550;2023-04-05T02:20:27;11.17;;;11.17;;
2710;SDS011;20721;47.402;8.550;2023-04-05T02:21:27;11.03;;;11.03;;
2710;SDS011;20721;47.402;8.550;2023-04-05T02:22:28;11.45;;;11.45;;
2710;SDS011;20721;47.402;8.550;2023-04-05T02:23:27;11.00;;;11.00;;
2710;SDS011;20721;47.402;8.550;2023-04-05T02:25:27;11.05;;;11.05;;
2710;SDS011;20721;47.402;8.550;2023-04-05T02:27:27;11.21;;;11.21;;
2710;SDS011;20721;47.402;8.550;2023-04-05T02:28:27;11.00;;;11.00;;
2710;SDS011;20721;47.402;8.550;2023-04-05T02:29:27;11.00;;;11.00;;
2710;SDS011;20721;47.402;8.550;2023-04-05T02:30:27;10.85;;;10.85;;
2710;SDS011;20721;47.402;8.550;2023-04-05T02:32:27;11.02;;;11.02;;
2710;SDS011;20721;47.402;8.550;2023-04-05T02:33:27;12.19;;;12.19;;
2710;SDS011;20721;47.402;8.550;2023-04-05T02:36:27;11.73;;;11.73;;
2710;SDS011;20721;47.402;8.550;2023-04-05T02:37:28;9.95;;;9.95;;
2710;SDS011;20721;47.402;8.550;2023-04-05T02:38:27;11.11;;;11.11;;
2710;SDS011;20721;47.402;8.550;2023-04-05T02:39:27;11.19;;;11.19;;
2710;SDS011;20721;47.402;8.550;2023-04-05T02:40:27;10.71;;;10.71;;
2710;SDS011;20721;47.402;8.550;2023-04-05T02:42:27;11.70;;;11.70;;
2710;SDS011;20721;47.402;8.550;2023-04-05T02:43:27;11.17;;;11.17;;
2710;SDS011;20721;47.402;8.550;2023-04-05T02:44:28;11.75;;;11.75;;
2710;SDS011;20721;47.402;8.550;2023-04-05T02:45:27;11.89;;;11.89;;
2710;SDS011;20721;47.402;8.550;2023-04-05T02:46:27;11.08;;;11.08;;
2710;SDS011;20721;47.402;8.550;2023-04-05T02:47:30;10.98;;;10.98;;
2710;SDS011;20721;47.402;8.550;2023-04-05T02:48:27;10.49;;;10.49;;
2710;SDS011;20721;47.402;8.550;2023-04-05T02:49:27;11.27;;;11.27;;
2710;SDS011;20721;47.402;8.550;2023-04-05T02:50:29;11.07;;;11.07;;
2710;SDS011;20721;47.402;8.550;2023-04-05T02:51:27;11.56;;;11.56;;
2710;SDS011;20721;47.402;8.550;2023-04-05T02:52:27;11.26;;;11.26;;
2710;SDS011;20721;47.402;8.550;2023-04-05T02:53:28;10.75;;;10.75;;
2710;SDS011;20721;47.402;8.550;2023-04-05T02:55:27;11.24;;;11.24;;
2710;SDS011;20721;47.402;8.550;2023-04-05T02:58:28;12.00;;;12.00;;
2710;SDS011;20721;47.402;8.550;2023-04-05T03:00:28;11.29;;;11.29;;
2710;SDS011;20721;47.402;8.550;2023-04-05T03:01:27;11.38;;;11.37;;
2710;SDS011;20721;47.402;8.550;2023-04-05T03:03:27;11.08;;;11.08;;
2710;SDS011;20721;47.402;8.550;2023-04-05T03:04:27;11.42;;;11.42;;
2710;SDS011;20721;47.402;8.550;2023-04-05T03:05:27;11.60;;;11.60;;
2710;SDS011;20721;47.402;8.550;2023-04-05T03:07:27;11.35;;;11.35;;
2710;SDS011;20721;47.402;8.550;2023-04-05T03:08:28;11.82;;;11.82;;
2710;SDS011;20721;47.402;8.550;2023-04-05T03:09:28;11.42;;;11.42;;
2710;SDS011;20721;47.402;8.550;2023-04-05T03:10:29;10.42;;;10.42;;
2710;SDS011;20721;47.402;8.550;2023-04-05T03:11:27;11.66;;;11.66;;
2710;SDS011;20721;47.402;8.550;2023-04-05T03:12:27;11.78;;;11.78;;
2710;SDS011;20721;47.402;8.550;2023-04-05T03:14:27;11.26;;;11.26;;
2710;SDS011;20721;47.402;8.550;2023-04-05T03:15:27;11.36;;;11.36;;
2710;SDS011;20721;47.402;8.550;2023-04-05T03:16:29;11.03;;;11.03;;
2710;SDS011;20721;47.402;8.550;2023-04-05T03:18:27;10.89;;;10.89;;
2710;SDS011;20721;47.402;8.550;2023-04-05T03:19:31;11.37;;;11.37;;
2710;SDS011;20721;47.402;8.550;2023-04-05T03:21:28;10.42;;;10.42;;
2710;SDS011;20721;47.402;8.550;2023-04-05T03:22:27;10.57;;;10.57;;
2710;SDS011;20721;47.402;8.550;2023-04-05T03:23:28;11.61;;;11.61;;
2710;SDS011;20721;47.402;8.550;2023-04-05T03:25:28;10.49;;;10.49;;
2710;SDS011;20721;47.402;8.550;2023-04-05T03:26:27;11.98;;;11.98;;
2710;SDS011;20721;47.402;8.550;2023-04-05T03:27:28;11.85;;;11.85;;
2710;SDS011;20721;47.402;8.550;2023-04-05T03:28:27;11.13;;;11.13;;
2710;SDS011;20721;47.402;8.550;2023-04-05T03:31:30;11.53;;;11.53;;
2710;SDS011;20721;47.402;8.550;2023-04-05T03:32:27;12.18;;;12.18;;
2710;SDS011;20721;47.402;8.550;2023-04-05T03:33:27;10.42;;;10.42;;
2710;SDS011;20721;47.402;8.550;2023-04-05T03:34:27;11.53;;;11.53;;
2710;SDS011;20721;47.402;8.550;2023-04-05T03:37:27;11.02;;;11.02;;
2710;SDS011;20721;47.402;8.550;2023-04-05T03:38:27;12.05;;;12.05;;
2710;SDS011;20721;47.402;8.550;2023-04-05T03:39:27;11.31;;;11.31;;
2710;SDS011;20721;47.402;8.550;2023-04-05T03:42:27;11.10;;;11.10;;
2710;SDS011;20721;47.402;8.550;2023-04-05T03:43:27;11.40;;;11.40;;
2710;SDS011;20721;47.402;8.550;2023-04-05T03:44:27;11.53;;;11.53;;
2710;SDS011;20721;47.402;8.550;2023-04-05T03:45:34;11.57;;;11.57;;
2710;SDS011;20721;47.402;8.550;2023-04-05T03:46:27;10.18;;;10.18;;
2710;SDS011;20721;47.402;8.550;2023-04-05T03:47:27;11.12;;;11.12;;
2710;SDS011;20721;47.402;8.550;2023-04-05T03:48:29;10.84;;;10.84;;
2710;SDS011;20721;47.402;8.550;2023-04-05T03:49:28;10.51;;;10.50;;
2710;SDS011;20721;47.402;8.550;2023-04-05T03:50:27;11.16;;;11.16;;
2710;SDS011;20721;47.402;8.550;2023-04-05T03:52:27;11.32;;;11.32;;
2710;SDS011;20721;47.402;8.550;2023-04-05T03:53:28;11.96;;;11.96;;
2710;SDS011;20721;47.402;8.550;2023-04-05T03:54:27;10.40;;;10.40;;
2710;SDS011;20721;47.402;8.550;2023-04-05T03:55:27;10.01;;;10.01;;
2710;SDS011;20721;47.402;8.550;2023-04-05T03:56:27;12.22;;;12.22;;
2710;SDS011;20721;47.402;8.550;2023-04-05T03:58:27;10.81;;;10.81;;
2710;SDS011;20721;47.402;8.550;2023-04-05T03:59:27;10.87;;;10.87;;
2710;SDS011;20721;47.402;8.550;2023-04-05T04:01:27;11.31;;;11.31;;
2710;SDS011;20721;47.402;8.550;2023-04-05T04:02:27;11.64;;;11.64;;
2710;SDS011;20721;47.402;8.550;2023-04-05T04:03:27;10.82;;;10.82;;
2710;SDS011;20721;47.402;8.550;2023-04-05T04:05:27;12.22;;;12.22;;
2710;SDS011;20721;47.402;8.550;2023-04-05T04:06:30;11.52;;;11.52;;
2710;SDS011;20721;47.402;8.550;2023-04-05T04:07:27;11.76;;;11.76;;
2710;SDS011;20721;47.402;8.550;2023-04-05T04:08:27;10.76;;;10.76;;
2710;SDS011;20721;47.402;8.550;2023-04-05T04:09:27;12.02;;;12.02;;
2710;SDS011;20721;47.402;8.550;2023-04-05T04:10:27;11.61;;;11.61;;
2710;SDS011;20721;47.402;8.550;2023-04-05T04:12:27;12.47;;;12.47;;
2710;SDS011;20721;47.402;8.550;2023-04-05T04:13:28;11.57;;;11.57;;
2710;SDS011;20721;47.402;8.550;2023-04-05T04:14:27;11.21;;;11.21;;
2710;SDS011;20721;47.402;8.550;2023-04-05T04:15:27;12.60;;;12.60;;
2710;SDS011;20721;47.402;8.550;2023-04-05T04:16:27;11.73;;;11.73;;
2710;SDS011;20721;47.402;8.550;2023-04-05T04:17:35;11.34;;;11.34;;
2710;SDS011;20721;47.402;8.550;2023-04-05T04:18:27;12.29;;;12.29;;
2710;SDS011;20721;47.402;8.550;2023-04-05T04:19:27;11.62;;;11.62;;
2710;SDS011;20721;47.402;8.550;2023-04-05T04:20:27;11.42;;;11.42;;
2710;SDS011;20721;47.402;8.550;2023-04-05T04:21:28;11.14;;;11.14;;
2710;SDS011;20721;47.402;8.550;2023-04-05T04:22:29;10.80;;;10.80;;
2710;SDS011;20721;47.402;8.550;2023-04-05T04:23:27;11.67;;;11.67;;
2710;SDS011;20721;47.402;8.550;2023-04-05T04:24:28;12.58;;;12.58;;
2710;SDS011;20721;47.402;8.550;2023-04-05T04:25:29;11.83;;;11.83;;
2710;SDS011;20721;47.402;8.550;2023-04-05T04:26:35;12.86;;;12.86;;
2710;SDS011;20721;47.402;8.550;2023-04-05T04:27:29;12.05;;;12.05;;
2710;SDS011;20721;47.402;8.550;2023-04-05T04:28:28;12.75;;;12.75;;
2710;SDS011;20721;47.402;8.550;2023-04-05T04:29:27;11.85;;;11.85;;
2710;SDS011;20721;47.402;8.550;2023-04-05T04:30:31;12.55;;;12.55;;
2710;SDS011;20721;47.402;8.550;2023-04-05T04:31:27;12.22;;;12.22;;
2710;SDS011;20721;47.402;8.550;2023-04-05T04:32:37;12.38;;;12.38;;
2710;SDS011;20721;47.402;8.550;2023-04-05T04:33:29;12.51;;;12.51;;
2710;SDS011;20721;47.402;8.550;2023-04-05T04:35:31;12.24;;;12.24;;
2710;SDS011;20721;47.402;8.550;2023-04-05T04:36:35;12.25;;;12.25;;
2710;SDS011;20721;47.402;8.550;2023-04-05T04:38:29;14.04;;;14.04;;
2710;SDS011;20721;47.402;8.550;2023-04-05T04:40:28;12.59;;;12.59;;
2710;SDS011;20721;47.402;8.550;2023-04-05T04:41:29;11.86;;;11.86;;
2710;SDS011;20721;47.402;8.550;2023-04-05T04:43:28;12.14;;;12.14;;
2710;SDS011;20721;47.402;8.550;2023-04-05T04:44:27;11.68;;;11.68;;
2710;SDS011;20721;47.402;8.550;2023-04-05T04:45:28;12.19;;;12.19;;
2710;SDS011;20721;47.402;8.550;2023-04-05T04:46:28;11.96;;;11.96;;
2710;SDS011;20721;47.402;8.550;2023-04-05T04:47:30;12.85;;;12.85;;
2710;SDS011;20721;47.402;8.550;2023-04-05T04:48:27;12.61;;;12.61;;
2710;SDS011;20721;47.402;8.550;2023-04-05T04:49:30;12.58;;;12.58;;
2710;SDS011;20721;47.402;8.550;2023-04-05T04:50:29;12.48;;;12.48;;
2710;SDS011;20721;47.402;8.550;2023-04-05T04:51:27;12.19;;;12.19;;
2710;SDS011;20721;47.402;8.550;2023-04-05T04:52:27;12.14;;;12.14;;
2710;SDS011;20721;47.402;8.550;2023-04-05T04:54:30;12.25;;;12.25;;
2710;SDS011;20721;47.402;8.550;2023-04-05T04:55:28;12.17;;;12.17;;
2710;SDS011;20721;47.402;8.550;2023-04-05T04:58:27;12.48;;;12.48;;
2710;SDS011;20721;47.402;8.550;2023-04-05T04:59:28;12.65;;;12.65;;
2710;SDS011;20721;47.402;8.550;2023-04-05T05:00:28;11.86;;;11.86;;
2710;SDS011;20721;47.402;8.550;2023-04-05T05:01:27;11.52;;;11.52;;
2710;SDS011;20721;47.402;8.550;2023-04-05T05:02:31;11.88;;;11.88;;
2710;SDS011;20721;47.402;8.550;2023-04-05T05:04:28;11.85;;;11.85;;
2710;SDS011;20721;47.402;8.550;2023-04-05T05:05:31;12.86;;;12.86;;
2710;SDS011;20721;47.402;8.550;2023-04-05T05:06:31;12.77;;;12.77;;
2710;SDS011;20721;47.402;8.550;2023-04-05T05:07:28;12.44;;;12.44;;
2710;SDS011;20721;47.402;8.550;2023-04-05T05:08:31;12.24;;;12.24;;
2710;SDS011;20721;47.402;8.550;2023-04-05T05:09:27;12.55;;;12.55;;
2710;SDS011;20721;47.402;8.550;2023-04-05T05:12:28;13.05;;;13.05;;
2710;SDS011;20721;47.402;8.550;2023-04-05T05:14:27;13.71;;;13.71;;
2710;SDS011;20721;47.402;8.550;2023-04-05T05:15:28;12.63;;;12.63;;
2710;SDS011;20721;47.402;8.550;2023-04-05T05:16:31;13.22;;;13.22;;
2710;SDS011;20721;47.402;8.550;2023-04-05T05:17:27;12.54;;;12.54;;
2710;SDS011;20721;47.402;8.550;2023-04-05T05:18:27;12.69;;;12.69;;
2710;SDS011;20721;47.402;8.550;2023-04-05T05:19:27;12.90;;;12.90;;
2710;SDS011;20721;47.402;8.550;2023-04-05T05:20:28;13.40;;;13.40;;
2710;SDS011;20721;47.402;8.550;2023-04-05T05:23:30;13.20;;;13.20;;
2710;SDS011;20721;47.402;8.550;2023-04-05T05:24:27;14.43;;;14.43;;
2710;SDS011;20721;47.402;8.550;2023-04-05T05:25:27;14.17;;;14.17;;
2710;SDS011;20721;47.402;8.550;2023-04-05T05:26:27;13.13;;;13.13;;
2710;SDS011;20721;47.402;8.550;2023-04-05T05:27:27;13.19;;;13.19;;
2710;SDS011;20721;47.402;8.550;2023-04-05T05:28:27;13.22;;;13.22;;
2710;SDS011;20721;47.402;8.550;2023-04-05T05:30:27;12.72;;;12.72;;
2710;SDS011;20721;47.402;8.550;2023-04-05T05:31:28;12.80;;;12.80;;
2710;SDS011;20721;47.402;8.550;2023-04-05T05:35:27;13.08;;;13.08;;
2710;SDS011;20721;47.402;8.550;2023-04-05T05:38:28;14.60;;;14.60;;
2710;SDS011;20721;47.402;8.550;2023-04-05T05:39:27;13.42;;;13.42;;
2710;SDS011;20721;47.402;8.550;2023-04-05T05:41:27;13.58;;;13.58;;
2710;SDS011;20721;47.402;8.550;2023-04-05T05:42:28;13.31;;;13.31;;
2710;SDS011;20721;47.402;8.550;2023-04-05T05:43:29;13.10;;;13.10;;
2710;SDS011;20721;47.402;8.550;2023-04-05T05:44:28;12.54;;;12.54;;
2710;SDS011;20721;47.402;8.550;2023-04-05T05:45:27;12.62;;;12.62;;
2710;SDS011;20721;47.402;8.550;2023-04-05T05:46:31;12.83;;;12.83;;
2710;SDS011;20721;47.402;8.550;2023-04-05T05:47:28;12.14;;;12.14;;
2710;SDS011;20721;47.402;8.550;2023-04-05T05:48:27;12.80;;;12.80;;
2710;SDS011;20721;47.402;8.550;2023-04-05T05:49:28;12.69;;;12.69;;
2710;SDS011;20721;47.402;8.550;2023-04-05T05:50:30;13.37;;;13.37;;
2710;SDS011;20721;47.402;8.550;2023-04-05T05:51:27;12.74;;;12.74;;
2710;SDS011;20721;47.402;8.550;2023-04-05T05:52:28;12.94;;;12.94;;
2710;SDS011;20721;47.402;8.550;2023-04-05T05:53:27;12.74;;;12.74;;
2710;SDS011;20721;47.402;8.550;2023-04-05T05:54:27;12.19;;;12.19;;
2710;SDS011;20721;47.402;8.550;2023-04-05T05:55:28;12.45;;;12.45;;
2710;SDS011;20721;47.402;8.550;2023-04-05T05:56:27;12.37;;;12.37;;
2710;SDS011;20721;47.402;8.550;2023-04-05T05:57:27;13.32;;;13.32;;
2710;SDS011;20721;47.402;8.550;2023-04-05T05:58:27;13.70;;;13.70;;
2710;SDS011;20721;47.402;8.550;2023-04-05T05:59:28;12.08;;;12.08;;
2710;SDS011;20721;47.402;8.550;2023-04-05T06:00:29;14.07;;;14.07;;
2710;SDS011;20721;47.402;8.550;2023-04-05T06:01:28;12.77;;;12.77;;
2710;SDS011;20721;47.402;8.550;2023-04-05T06:02:28;12.82;;;12.82;;
2710;SDS011;20721;47.402;8.550;2023-04-05T06:03:28;12.27;;;12.27;;
2710;SDS011;20721;47.402;8.550;2023-04-05T06:04:28;12.58;;;12.58;;
2710;SDS011;20721;47.402;8.550;2023-04-05T06:05:28;13.12;;;13.12;;
2710;SDS011;20721;47.402;8.550;2023-04-05T06:06:27;12.46;;;12.46;;
2710;SDS011;20721;47.402;8.550;2023-04-05T06:07:27;12.86;;;12.86;;
2710;SDS011;20721;47.402;8.550;2023-04-05T06:08:28;12.90;;;12.90;;
2710;SDS011;20721;47.402;8.550;2023-04-05T06:09:27;12.71;;;12.71;;
2710;SDS011;20721;47.402;8.550;2023-04-05T06:10:29;13.92;;;13.92;;
2710;SDS011;20721;47.402;8.550;2023-04-05T06:11:28;12.49;;;12.49;;
2710;SDS011;20721;47.402;8.550;2023-04-05T06:12:29;13.26;;;13.26;;
2710;SDS011;20721;47.402;8.550;2023-04-05T06:13:28;12.66;;;12.66;;
2710;SDS011;20721;47.402;8.550;2023-04-05T06:14:27;11.40;;;11.40;;
2710;SDS011;20721;47.402;8.550;2023-04-05T06:15:28;11.90;;;11.90;;
2710;SDS011;20721;47.402;8.550;2023-04-05T06:16:28;11.90;;;11.90;;
2710;SDS011;20721;47.402;8.550;2023-04-05T06:17:27;12.59;;;12.59;;
2710;SDS011;20721;47.402;8.550;2023-04-05T06:18:29;12.64;;;12.64;;
2710;SDS011;20721;47.402;8.550;2023-04-05T06:19:27;12.75;;;12.75;;
2710;SDS011;20721;47.402;8.550;2023-04-05T06:20:28;12.54;;;12.54;;
2710;SDS011;20721;47.402;8.550;2023-04-05T06:21:27;12.16;;;12.16;;
2710;SDS011;20721;47.402;8.550;2023-04-05T06:22:28;12.10;;;12.10;;
2710;SDS011;20721;47.402;8.550;2023-04-05T06:23:28;13.70;;;13.70;;
2710;SDS011;20721;47.402;8.550;2023-04-05T06:24:27;13.12;;;13.12;;
2710;SDS011;20721;47.402;8.550;2023-04-05T06:25:28;12.97;;;12.97;;
2710;SDS011;20721;47.402;8.550;2023-04-05T06:27:27;13.20;;;13.20;;
2710;SDS011;20721;47.402;8.550;2023-04-05T06:28:27;12.32;;;12.32;;
2710;SDS011;20721;47.402;8.550;2023-04-05T06:29:28;13.03;;;13.03;;
2710;SDS011;20721;47.402;8.550;2023-04-05T06:30:28;12.60;;;12.60;;
2710;SDS011;20721;47.402;8.550;2023-04-05T06:31:30;13.21;;;13.21;;
2710;SDS011;20721;47.402;8.550;2023-04-05T06:32:27;13.50;;;13.50;;
2710;SDS011;20721;47.402;8.550;2023-04-05T06:33:28;12.09;;;12.09;;
2710;SDS011;20721;47.402;8.550;2023-04-05T06:34:28;12.79;;;12.79;;
2710;SDS011;20721;47.402;8.550;2023-04-05T06:35:28;13.55;;;13.55;;
2710;SDS011;20721;47.402;8.550;2023-04-05T06:36:29;14.03;;;14.03;;
2710;SDS011;20721;47.402;8.550;2023-04-05T06:37:28;13.47;;;13.47;;
2710;SDS011;20721;47.402;8.550;2023-04-05T06:38:28;12.65;;;12.65;;
2710;SDS011;20721;47.402;8.550;2023-04-05T06:39:28;11.75;;;11.75;;
2710;SDS011;20721;47.402;8.550;2023-04-05T06:40:28;13.91;;;13.91;;
2710;SDS011;20721;47.402;8.550;2023-04-05T06:41:28;12.66;;;12.66;;
2710;SDS011;20721;47.402;8.550;2023-04-05T06:42:27;12.51;;;12.51;;
2710;SDS011;20721;47.402;8.550;2023-04-05T06:43:28;13.64;;;13.64;;
2710;SDS011;20721;47.402;8.550;2023-04-05T06:44:27;12.90;;;12.90;;
2710;SDS011;20721;47.402;8.550;2023-04-05T06:45:28;12.10;;;12.10;;
2710;SDS011;20721;47.402;8.550;2023-04-05T06:46:28;12.79;;;12.79;;
2710;SDS011;20721;47.402;8.550;2023-04-05T06:47:28;12.31;;;12.31;;
2710;SDS011;20721;47.402;8.550;2023-04-05T06:48:28;12.48;;;12.48;;
2710;SDS011;20721;47.402;8.550;2023-04-05T06:49:28;11.99;;;11.99;;
2710;SDS011;20721;47.402;8.550;2023-04-05T06:50:28;13.24;;;13.24;;
2710;SDS011;20721;47.402;8.550;2023-04-05T06:51:28;11.74;;;11.74;;
2710;SDS011;20721;47.402;8.550;2023-04-05T06:52:28;13.11;;;13.11;;
2710;SDS011;20721;47.402;8.550;2023-04-05T06:53:28;13.07;;;13.07;;
2710;SDS011;20721;47.402;8.550;2023-04-05T06:54:31;12.43;;;12.43;;
2710;SDS011;20721;47.402;8.550;2023-04-05T06:55:28;13.11;;;13.11;;
2710;SDS011;20721;47.402;8.550;2023-04-05T06:56:28;11.80;;;11.80;;
2710;SDS011;20721;47.402;8.550;2023-04-05T06:57:28;11.91;;;11.91;;
2710;SDS011;20721;47.402;8.550;2023-04-05T06:58:28;11.97;;;11.97;;
2710;SDS011;20721;47.402;8.550;2023-04-05T06:59:28;12.35;;;12.35;;
2710;SDS011;20721;47.402;8.550;2023-04-05T07:00:28;11.99;;;11.99;;
2710;SDS011;20721;47.402;8.550;2023-04-05T07:01:28;11.95;;;11.95;;
2710;SDS011;20721;47.402;8.550;2023-04-05T07:02:28;12.09;;;12.09;;
2710;SDS011;20721;47.402;8.550;2023-04-05T07:03:28;11.90;;;11.90;;
2710;SDS011;20721;47.402;8.550;2023-04-05T07:04:28;12.44;;;12.44;;
2710;SDS011;20721;47.402;8.550;2023-04-05T07:05:28;12.57;;;12.57;;
2710;SDS011;20721;47.402;8.550;2023-04-05T07:06:28;12.73;;;12.73;;
2710;SDS011;20721;47.402;8.550;2023-04-05T07:07:28;11.63;;;11.63;;
2710;SDS011;20721;47.402;8.550;2023-04-05T07:08:30;12.95;;;12.95;;
2710;SDS011;20721;47.402;8.550;2023-04-05T07:09:31;12.28;;;12.27;;
2710;SDS011;20721;47.402;8.550;2023-04-05T07:10:28;11.12;;;11.12;;
2710;SDS011;20721;47.402;8.550;2023-04-05T07:11:28;11.70;;;11.70;;
2710;SDS011;20721;47.402;8.550;2023-04-05T07:12:28;12.41;;;12.41;;
2710;SDS011;20721;47.402;8.550;2023-04-05T07:13:28;11.19;;;11.19;;
2710;SDS011;20721;47.402;8.550;2023-04-05T07:14:28;12.03;;;12.03;;
2710;SDS011;20721;47.402;8.550;2023-04-05T07:15:28;11.91;;;11.91;;
2710;SDS011;20721;47.402;8.550;2023-04-05T07:16:32;12.80;;;12.80;;
2710;SDS011;20721;47.402;8.550;2023-04-05T07:17:28;13.03;;;13.03;;
2710;SDS011;20721;47.402;8.550;2023-04-05T07:18:28;12.13;;;12.13;;